createdAt,value
2022-09-03T00:01:51.788Z,0.68
2022-09-03T00:07:03.594Z,0.60
2022-09-03T00:12:13.689Z,0.70
2022-09-03T00:17:19.578Z,0.60
2022-09-03T00:22:52.030Z,0.60
2022-09-03T00:27:57.577Z,0.50
2022-09-03T00:33:06.929Z,0.60
2022-09-03T00:38:09.418Z,0.60
2022-09-03T00:43:25.353Z,0.70
2022-09-03T00:48:32.641Z,0.60
2022-09-03T00:53:57.287Z,0.82
2022-09-03T00:59:21.254Z,0.60
2022-09-03T01:04:35.294Z,0.70
2022-09-03T01:09:58.892Z,0.50
2022-09-03T01:15:20.881Z,0.65
2022-09-03T01:20:51.525Z,0.63
2022-09-03T01:25:53.372Z,0.80
2022-09-03T01:31:03.071Z,0.80
2022-09-03T01:36:23.013Z,0.75
2022-09-03T01:41:55.642Z,0.60
2022-09-03T01:47:09.858Z,0.60
2022-09-03T01:52:36.404Z,0.63
2022-09-03T01:57:58.746Z,0.70
2022-09-03T02:03:06.968Z,0.80
2022-09-03T02:08:11.662Z,0.60
2022-09-03T02:13:23.962Z,0.57
2022-09-03T02:18:29.956Z,0.70
2022-09-03T02:23:31.891Z,0.75
2022-09-03T02:28:34.124Z,0.60
2022-09-03T02:33:39.805Z,0.60
2022-09-03T02:38:43.458Z,0.65
2022-09-03T02:44:04.632Z,0.60
2022-09-03T02:49:06.717Z,0.73
2022-09-03T02:54:10.538Z,0.80
2022-09-03T02:59:12.154Z,0.90
2022-09-03T03:04:13.954Z,0.80
2022-09-03T03:09:15.768Z,0.75
2022-09-03T03:14:18.686Z,0.70
2022-09-03T03:19:20.321Z,0.70
2022-09-03T03:24:21.912Z,0.70
2022-09-03T03:29:25.056Z,0.52
2022-09-03T03:34:26.753Z,0.80
2022-09-03T03:39:28.436Z,0.70
2022-09-03T03:44:30.150Z,0.60
2022-09-03T03:49:31.768Z,0.70
2022-09-03T03:54:33.373Z,0.70
2022-09-03T03:59:34.954Z,0.82
2022-09-03T04:04:36.626Z,0.90
2022-09-03T04:09:38.715Z,0.70
2022-09-03T04:14:40.375Z,0.80
2022-09-03T04:19:41.977Z,0.73
2022-09-03T04:24:43.569Z,0.70
2022-09-03T04:29:45.174Z,0.80
2022-09-03T04:34:47.216Z,0.82
2022-09-03T04:39:49.095Z,0.90
2022-09-03T04:44:50.840Z,0.80
2022-09-03T04:49:54.010Z,0.88
2022-09-03T04:54:55.602Z,0.90
2022-09-03T04:59:57.193Z,0.82
2022-09-03T05:04:58.798Z,0.80
2022-09-03T05:10:00.457Z,1.25
2022-09-03T05:15:02.455Z,0.80
2022-09-03T05:20:04.269Z,0.82
2022-09-03T05:25:06.492Z,0.70
2022-09-03T05:30:09.298Z,0.80
2022-09-03T05:35:10.977Z,1.00
2022-09-03T05:40:12.612Z,0.90
2022-09-03T05:45:14.270Z,0.70
2022-09-03T05:50:15.884Z,0.80
2022-09-03T05:55:17.484Z,0.73
2022-09-03T06:00:22.162Z,1.10
2022-09-03T06:05:23.839Z,0.80
2022-09-03T06:10:29.240Z,1.00
2022-09-03T06:15:34.117Z,0.90
2022-09-03T06:20:37.304Z,0.85
2022-09-03T06:25:39.365Z,0.88
2022-09-03T06:30:43.874Z,0.60
2022-09-03T06:35:46.773Z,0.90
2022-09-03T06:40:55.868Z,0.77
2022-09-03T06:45:59.273Z,0.85
2022-09-03T06:51:03.193Z,1.00
2022-09-03T06:56:08.053Z,1.15
2022-09-03T07:01:19.202Z,1.05
2022-09-03T07:06:21.715Z,0.80
2022-09-03T07:11:26.161Z,0.70
2022-09-03T07:16:30.470Z,0.70
2022-09-03T07:21:36.798Z,0.98
2022-09-03T07:26:40.946Z,0.90
2022-09-03T07:31:43.886Z,0.70
2022-09-03T07:36:47.801Z,1.05
2022-09-03T07:41:50.787Z,0.90
2022-09-03T07:46:52.838Z,0.80
2022-09-03T07:51:54.748Z,0.80
2022-09-03T07:56:56.785Z,0.70
2022-09-03T08:01:59.199Z,0.93
2022-09-03T08:07:00.841Z,0.77
2022-09-03T08:12:02.661Z,0.80
2022-09-03T08:17:04.608Z,0.98
2022-09-03T08:22:06.312Z,0.77
2022-09-03T08:27:08.286Z,0.93
2022-09-03T08:32:09.885Z,1.10
2022-09-03T08:37:15.913Z,1.20
2022-09-03T08:42:28.569Z,1.20
2022-09-03T08:47:35.284Z,0.85
2022-09-03T08:58:14.029Z,0.63
2022-09-03T09:03:30.800Z,0.85
2022-09-03T09:08:35.445Z,0.80
2022-09-03T09:13:57.962Z,0.90
2022-09-03T09:19:21.719Z,0.90
2022-09-03T09:24:26.477Z,1.05
2022-09-03T09:29:32.968Z,0.88
2022-09-03T09:34:39.010Z,0.77
2022-09-03T09:39:53.260Z,0.70
2022-09-03T09:44:55.115Z,1.13
2022-09-03T09:49:58.782Z,0.80
2022-09-03T09:55:29.934Z,0.70
2022-09-03T10:00:34.167Z,0.60
2022-09-03T10:05:40.438Z,0.98
2022-09-03T10:10:48.951Z,0.85
2022-09-03T10:16:15.478Z,0.80
2022-09-03T10:21:51.308Z,0.70
2022-09-03T10:26:52.976Z,0.82
2022-09-03T10:32:11.774Z,0.90
2022-09-03T10:37:25.873Z,0.95
2022-09-03T10:42:42.346Z,0.70
2022-09-03T10:48:21.666Z,1.00
2022-09-03T10:53:49.880Z,0.82
2022-09-03T10:59:32.201Z,0.80
2022-09-03T11:04:49.114Z,0.80
2022-09-03T11:10:09.673Z,0.90
2022-09-03T11:15:34.495Z,1.00
2022-09-03T11:20:36.691Z,0.82
2022-09-03T11:25:46.801Z,0.90
2022-09-03T11:31:06.998Z,0.85
2022-09-03T11:36:08.693Z,0.70
2022-09-03T11:41:22.685Z,0.70
2022-09-03T11:46:24.492Z,0.82
2022-09-03T11:51:33.861Z,0.70
2022-09-03T11:56:35.905Z,0.60
2022-09-03T12:01:39.701Z,0.73
2022-09-03T12:07:01.399Z,1.10
2022-09-03T12:12:30.890Z,0.68
2022-09-03T12:18:11.694Z,0.70
2022-09-03T12:23:25.580Z,0.60
2022-09-03T12:28:33.178Z,0.70
2022-09-03T12:33:35.892Z,0.73
2022-09-03T12:39:00.790Z,0.50
2022-09-03T12:44:00.609Z,0.60
2022-09-03T12:54:29.552Z,0.60
2022-09-03T12:59:33.949Z,0.65
2022-09-03T13:04:37.318Z,0.70
2022-09-03T13:09:41.266Z,0.70
2022-09-03T13:14:48.201Z,0.55
2022-09-03T13:20:20.949Z,0.70
2022-09-03T13:25:38.047Z,0.70
2022-09-03T13:31:07.489Z,0.75
2022-09-03T13:36:19.713Z,0.80
2022-09-03T13:41:41.837Z,0.60
2022-09-03T13:47:12.314Z,0.70
2022-09-03T13:52:24.724Z,0.80
2022-09-03T13:57:45.688Z,0.65
2022-09-03T14:02:47.313Z,0.70
2022-09-03T14:07:57.969Z,0.77
2022-09-03T14:13:12.461Z,0.70
2022-09-03T14:18:35.915Z,0.70
2022-09-03T14:24:09.826Z,0.65
2022-09-03T14:29:11.509Z,0.98
2022-09-03T14:34:31.989Z,0.80
2022-09-03T14:39:59.658Z,0.70
2022-09-03T14:45:25.698Z,0.75
2022-09-03T14:50:54.270Z,0.80
2022-09-03T14:56:17.576Z,0.80
2022-09-03T15:01:29.221Z,0.70
2022-09-03T15:07:16.554Z,0.80
2022-09-03T15:12:59.692Z,0.70
2022-09-03T15:18:04.064Z,0.80
2022-09-03T15:23:40.285Z,0.80
2022-09-03T15:29:07.116Z,1.00
2022-09-03T15:34:36.010Z,0.63
2022-09-03T15:39:44.330Z,0.73
2022-09-03T15:44:52.437Z,0.80
2022-09-03T15:50:12.257Z,0.88
2022-09-03T15:55:41.745Z,0.75
2022-09-03T16:00:53.672Z,0.60
2022-09-03T16:05:59.907Z,0.85
2022-09-03T16:11:10.917Z,0.70
2022-09-03T16:16:22.510Z,0.85
2022-09-03T16:21:54.802Z,0.80
2022-09-03T16:27:07.250Z,0.80
2022-09-03T16:32:35.375Z,1.13
2022-09-03T16:38:05.836Z,0.88
2022-09-03T16:43:41.705Z,1.10
2022-09-03T16:49:12.607Z,0.70
2022-09-03T16:54:30.814Z,0.80
2022-09-03T17:00:08.501Z,0.77
2022-09-03T17:05:28.809Z,0.88
2022-09-03T17:11:03.190Z,0.85
2022-09-03T17:16:23.563Z,0.90
2022-09-03T17:21:26.417Z,0.75
2022-09-03T17:26:55.895Z,1.00
2022-09-03T17:32:13.580Z,1.00
2022-09-03T17:37:18.349Z,1.00
2022-09-03T17:42:49.191Z,1.00
2022-09-03T17:48:16.624Z,0.95
2022-09-03T17:53:26.833Z,1.08
2022-09-03T17:58:37.190Z,1.60
2022-09-03T18:03:50.157Z,1.10
2022-09-03T18:09:07.359Z,1.00
2022-09-03T18:14:35.333Z,1.30
2022-09-03T18:20:03.128Z,1.15
2022-09-03T18:25:24.819Z,1.30
2022-09-03T18:30:46.926Z,1.10
2022-09-03T18:36:07.418Z,1.10
2022-09-03T18:42:05.936Z,0.90
2022-09-03T18:48:16.337Z,1.20
2022-09-03T18:54:14.829Z,1.20
2022-09-03T18:59:41.480Z,1.10
2022-09-03T19:05:36.048Z,1.40
2022-09-03T19:11:20.141Z,1.15
2022-09-03T19:16:47.261Z,1.38
2022-09-03T19:22:12.864Z,1.23
2022-09-03T19:27:59.867Z,1.27
2022-09-03T19:33:30.177Z,1.20
2022-09-03T19:39:07.261Z,1.17
2022-09-03T19:44:53.502Z,1.10
2022-09-03T19:50:39.517Z,1.00
2022-09-03T19:56:07.610Z,1.13
2022-09-03T20:01:29.969Z,1.40
2022-09-03T20:06:53.278Z,1.10
2022-09-03T20:11:58.802Z,1.05
2022-09-03T20:17:22.512Z,1.25
2022-09-03T20:22:38.514Z,1.23
2022-09-03T20:28:04.579Z,0.93
2022-09-03T20:33:25.971Z,0.98
2022-09-03T20:39:04.963Z,1.10
2022-09-03T20:44:09.607Z,0.98
2022-09-03T20:49:42.876Z,1.10
2022-09-03T20:54:53.408Z,1.10
2022-09-03T20:59:59.316Z,1.40
2022-09-03T21:05:36.335Z,1.30
2022-09-03T21:10:57.745Z,1.20
2022-09-03T21:16:38.382Z,1.40
2022-09-03T21:21:40.331Z,1.30
2022-09-03T21:26:46.141Z,1.60
2022-09-03T21:32:03.893Z,1.90
2022-09-03T21:37:08.878Z,1.50
2022-09-03T21:42:30.874Z,1.60
2022-09-03T21:47:39.309Z,1.50
2022-09-03T21:53:06.912Z,1.65
2022-09-03T21:58:31.505Z,1.70
2022-09-03T22:03:33.224Z,1.40
2022-09-03T22:08:38.954Z,1.65
2022-09-03T22:14:16.726Z,1.77
2022-09-03T22:19:18.591Z,1.92
2022-09-03T22:24:34.399Z,1.58
2022-09-03T22:30:09.091Z,1.65
2022-09-03T22:35:41.321Z,1.60
2022-09-03T22:41:01.880Z,1.45
2022-09-03T22:46:18.959Z,1.60
2022-09-03T22:56:23.724Z,1.45
2022-09-03T23:01:43.539Z,1.58
2022-09-03T23:06:55.157Z,1.60
2022-09-03T23:12:00.657Z,1.50
2022-09-03T23:17:13.397Z,1.52
2022-09-03T23:22:23.228Z,1.83
2022-09-03T23:27:39.398Z,1.60
2022-09-03T23:32:41.351Z,1.90
2022-09-03T23:38:06.377Z,1.98
2022-09-03T23:43:25.698Z,1.52
2022-09-03T23:48:30.006Z,1.60
2022-09-03T23:54:10.190Z,1.60
2022-09-03T23:59:23.838Z,1.60
